El Rito, NM (87530)

11:24 AM MDT on May 26, 2017 (GMT -0600)
El Ojito | | Change Station

Elev 7359 ft 36.38 °N, 106.05 °W | Updated 13 minutes ago

Clear
Clear
71.9 °F
Feels Like 73 °F
N
5.0
Wind Variable Wind from SW
Gusts 12.0 mph

Today
High -- | Low -- °F
--% Chance of Precip.
Yesterday
High -- | Low -- °F
Precip. -- in
Pressure 30.10 in
Visibility 9.0 miles
Clouds Clear
Heat Index 73 °F
Dew Point 16 °F
Humidity 12%
Rainfall 0.00 in
Snow Depth Not available.
5:50 AM 8:13 PM
New Moon, 1% visible
METAR KSKX 261715Z AUTO 23013G17KT 9SM CLR 19/M07 A3010 RMK AO1
Pressure 30.10 in
Visibility 9.0 miles
Clouds Clear
Heat Index 73 °F
Dew Point 16 °F
Humidity 12%
Rainfall 0.00 in
Snow Depth Not available.
5:50 AM 8:13 PM
New Moon, 1% visible
METAR KSKX 261715Z AUTO 23013G17KT 9SM CLR 19/M07 A3010 RMK AO1

Get Severe Weather Alerts

Thanks for signing up!

Be on the lookout for a verification email in your inbox.

You'll start receiving the daily forecast at 6 AM.

×

10-Day Weather Forecast

Almanac

Astronomy

May. 26, 2017 Rise Set
Actual Time
Civil Twilight
Nautical Twilight
Astronomical Twilight
Moon
Length of Visible Light
Length of Day
Tomorrow will be .
, % of the Moon is Illuminated

Today's Extremes

State Highs State Lows

Community

WunderPhotos

Category 6

Welcome to Category 6. This is the collective home for Weather Underground's featured writeups by Dr. Jeff Masters (right), Bob Henson (left), Chris Burt, and other regular contributors.

Nearby

Air Quality

  Air Quality AQ Index Pollutant
Not available.

Snow Depth

Station Depth Elevation

Earthquake Activity

City Distance Mag. Time & Date
Minimum magnitude displayed is 2.5.

Coastal Water Temperatures

Place Temperature

Stations

Nearby Weather Stations

Station Location Temp. Windchill Dew Point Humidity Wind Precip. Elev Updated Type
                   

Watches & Warnings

There are currently no watches in effect.